Time;durP1;ratioP1;P1;durP2;ratioP2;P2;SDS_P1;SDS_P2;PMS_P1;PMS_P2;Temp;Humidity;BMP_temperature;BMP_pressure;BME280_temperature;BME280_humidity;BME280_pressure;Samples;Min_cycle;Max_cycle;Signal;HPM_P1;HPM_P2
2021/03/01 00:00:57;;;;;;;21.42;12.68;;;;;;;3.34;67.68;101424.94;3060611;28;20473;-78
2021/03/01 00:02:28;;;;;;;20.85;11.98;;;;;;;3.36;67.91;101424.84;3061608;29;20070;-78
2021/03/01 00:03:59;;;;;;;22.08;11.63;;;;;;;3.39;67.73;101420.31;3062066;28;20083;-78
2021/03/01 00:05:31;;;;;;;26.73;12.95;;;;;;;3.37;67.82;101429.22;3061052;29;20043;-78
2021/03/01 00:07:03;;;;;;;18.48;11.18;;;;;;;3.38;67.82;101433.59;3059115;28;20047;-78
2021/03/01 00:08:34;;;;;;;19.70;12.10;;;;;;;3.35;67.74;101420.50;3062465;29;20071;-78
2021/03/01 00:10:07;;;;;;;18.67;11.35;;;;;;;3.38;67.79;101426.50;3058952;28;20066;-79
2021/03/01 00:11:39;;;;;;;20.17;11.70;;;;;;;3.38;67.71;101433.59;3061208;29;20083;-78
2021/03/01 00:13:10;;;;;;;20.95;11.85;;;;;;;3.36;67.76;101430.16;3060019;28;20078;-78
2021/03/01 00:14:41;;;;;;;19.95;11.18;;;;;;;3.36;67.88;101425.72;3061749;29;20052;-78
2021/03/01 00:16:12;;;;;;;23.83;12.65;;;;;;;3.34;67.85;101427.56;3061507;29;20071;-77
2021/03/01 00:17:43;;;;;;;22.70;13.45;;;;;;;3.31;67.94;101429.50;3063938;29;20058;-78
2021/03/01 00:19:15;;;;;;;19.77;12.10;;;;;;;3.24;68.15;101427.09;3062777;29;20111;-78
2021/03/01 00:20:46;;;;;;;21.67;12.07;;;;;;;3.21;68.14;101431.63;3059874;29;20084;-78
2021/03/01 00:22:17;;;;;;;24.20;12.93;;;;;;;3.20;68.18;101436.09;3063823;29;20093;-78
2021/03/01 00:23:48;;;;;;;23.67;12.98;;;;;;;3.20;68.22;101437.84;3060072;29;20048;-78
2021/03/01 00:25:19;;;;;;;19.30;10.73;;;;;;;3.19;68.37;101436.13;3062343;29;20044;-78
2021/03/01 00:26:51;;;;;;;23.65;14.52;;;;;;;3.17;68.34;101438.84;3058541;29;20080;-78
2021/03/01 00:28:22;;;;;;;22.33;13.10;;;;;;;3.14;68.47;101441.59;3060719;29;20039;-78
2021/03/01 00:29:54;;;;;;;26.80;12.93;;;;;;;3.11;68.57;101442.59;3056921;29;20080;-78
2021/03/01 00:31:25;;;;;;;26.30;14.20;;;;;;;3.10;68.63;101445.31;3063504;29;20048;-77
2021/03/01 00:32:56;;;;;;;23.83;12.80;;;;;;;3.07;68.60;101432.22;3060502;29;20048;-77
2021/03/01 00:34:27;;;;;;;26.38;14.35;;;;;;;3.01;68.80;101435.97;3062819;29;20048;-78
2021/03/01 00:35:59;;;;;;;20.98;11.95;;;;;;;2.97;68.90;101445.78;3062798;29;20055;-79
2021/03/01 00:37:30;;;;;;;23.63;13.13;;;;;;;2.98;68.84;101436.06;3073468;29;20051;-78
2021/03/01 00:39:01;;;;;;;22.45;11.63;;;;;;;2.99;68.84;101450.16;3067868;29;20048;-78
2021/03/01 00:40:32;;;;;;;22.27;12.20;;;;;;;2.97;68.66;101445.78;3067770;29;20047;-77
2021/03/01 00:42:05;;;;;;;18.65;10.73;;;;;;;2.97;68.75;101444.94;3063910;29;20055;-78
2021/03/01 00:43:36;;;;;;;22.13;13.23;;;;;;;2.96;68.74;101446.72;3071466;29;20316;-78
2021/03/01 00:45:08;;;;;;;23.63;12.68;;;;;;;2.96;68.69;101446.72;3071166;29;20043;-78
2021/03/01 00:46:39;;;;;;;24.27;14.35;;;;;;;2.92;68.83;101446.91;3065679;29;20067;-78
2021/03/01 00:48:11;;;;;;;22.08;13.93;;;;;;;2.88;68.90;101442.66;3060296;29;20087;-77
2021/03/01 00:49:42;;;;;;;19.58;10.68;;;;;;;2.86;68.79;101432.16;3061976;29;20083;-78
2021/03/01 00:51:13;;;;;;;19.38;12.38;;;;;;;2.89;68.85;101436.44;3060816;29;20044;-78
2021/03/01 00:52:44;;;;;;;21.20;11.18;;;;;;;2.90;68.75;101432.88;3062443;29;20130;-78
2021/03/01 00:54:16;;;;;;;18.20;9.82;;;;;;;2.91;68.84;101440.75;3061053;29;20400;-78
2021/03/01 00:55:47;;;;;;;20.90;11.15;;;;;;;2.94;68.76;101439.78;3061992;29;20103;-78
2021/03/01 00:57:19;;;;;;;16.70;10.07;;;;;;;2.95;68.63;101442.34;3059653;29;20040;-78
2021/03/01 00:58:50;;;;;;;24.92;12.05;;;;;;;2.99;68.63;101439.59;3060650;29;20056;-78
2021/03/01 01:00:22;;;;;;;20.52;10.68;;;;;;;2.97;68.65;101437.88;3058172;29;20098;-78
2021/03/01 01:01:53;;;;;;;23.10;11.88;;;;;;;2.97;68.62;101432.59;3060950;29;20562;-78
2021/03/01 01:03:25;;;;;;;21.98;13.07;;;;;;;2.97;68.53;101432.59;3062204;29;20058;-77
2021/03/01 01:04:56;;;;;;;22.08;11.95;;;;;;;2.94;68.65;101435.34;3058473;29;20534;-77
2021/03/01 01:06:27;;;;;;;25.48;12.82;;;;;;;2.91;68.67;101434.59;3059651;29;20087;-78
2021/03/01 01:07:58;;;;;;;21.40;12.48;;;;;;;2.90;68.83;101433.75;3061539;29;20052;-78
2021/03/01 01:09:30;;;;;;;22.77;13.05;;;;;;;2.89;68.91;101434.69;3060712;29;20067;-78
2021/03/01 01:11:01;;;;;;;23.65;12.95;;;;;;;2.88;68.87;101429.47;3067374;29;20051;-78
2021/03/01 01:12:34;;;;;;;18.25;11.05;;;;;;;2.90;68.84;101436.41;3066024;29;20059;-78
2021/03/01 01:14:05;;;;;;;19.83;11.95;;;;;;;2.93;68.54;101438.06;3071629;29;20075;-78
2021/03/01 01:15:37;;;;;;;18.70;10.23;;;;;;;2.94;68.69;101440.63;3071185;29;20070;-78
2021/03/01 01:17:08;;;;;;;17.73;9.30;;;;;;;2.97;68.44;101439.66;3072187;29;20055;-78
2021/03/01 01:18:41;;;;;;;22.90;12.38;;;;;;;2.99;68.49;101447.50;3068257;29;20086;-78
2021/03/01 01:20:16;;;;;;;20.42;10.82;;;;;;;2.97;68.51;101443.16;3073694;29;20044;-78
2021/03/01 01:21:56;;;;;;;17.77;9.98;;;;;;;2.97;68.57;101442.31;3071749;29;20062;-78
2021/03/01 01:23:31;;;;;;;23.85;12.88;;;;;;;2.96;68.52;101448.50;3073634;29;20040;-78
2021/03/01 01:25:03;;;;;;;22.25;12.63;;;;;;;2.92;68.77;101445.13;3073595;29;20044;-78
2021/03/01 01:26:35;;;;;;;18.70;11.10;;;;;;;2.90;69.00;101444.31;3075844;29;20052;-79
2021/03/01 01:28:10;;;;;;;18.65;11.05;;;;;;;2.89;68.98;101444.38;3073739;29;20051;-78
2021/03/01 01:29:40;;;;;;;23.00;11.02;;;;;;;2.87;69.07;101436.50;3064742;29;20071;-77
2021/03/01 01:31:12;;;;;;;20.55;11.57;;;;;;;2.90;69.02;101444.31;3061706;29;20043;-78
2021/03/01 01:32:43;;;;;;;18.25;10.23;;;;;;;2.93;69.05;101443.34;3065404;29;20051;-78
2021/03/01 01:34:14;;;;;;;20.30;12.00;;;;;;;2.94;69.04;101439.78;3061255;29;20035;-78
2021/03/01 01:35:45;;;;;;;20.80;12.23;;;;;;;2.90;68.95;101435.53;3057658;29;20059;-77
2021/03/01 01:37:16;;;;;;;19.23;11.63;;;;;;;2.86;69.19;101440.06;3060852;29;20629;-78
2021/03/01 01:38:47;;;;;;;17.05;10.73;;;;;;;2.83;69.21;101440.22;3061883;29;20056;-78
2021/03/01 01:40:21;;;;;;;20.85;11.82;;;;;;;2.83;69.30;101434.94;3062951;29;20407;-78
2021/03/01 01:41:52;;;;;;;19.05;9.63;;;;;;;2.80;69.31;101435.88;3057303;29;20522;-78
2021/03/01 01:43:24;;;;;;;18.75;11.10;;;;;;;2.80;69.30;101435.88;3063159;29;20048;-78
2021/03/01 01:44:55;;;;;;;20.00;12.43;;;;;;;2.77;69.50;101437.78;3062212;29;22130;-78
2021/03/01 01:46:27;;;;;;;14.65;8.77;;;;;;;2.74;69.48;101430.84;3068269;29;20095;-77
2021/03/01 01:47:57;;;;;;;16.30;9.18;;;;;;;2.74;69.48;101427.38;3061587;29;20415;-78
2021/03/01 01:49:29;;;;;;;21.52;12.85;;;;;;;2.65;69.52;101426.78;3063785;29;20048;-78
2021/03/01 01:51:00;;;;;;;21.48;12.68;;;;;;;2.53;69.80;101429.03;3061562;29;20047;-77
2021/03/01 01:52:31;;;;;;;20.48;11.65;;;;;;;2.45;69.86;101430.19;3061524;29;20048;-78
2021/03/01 01:54:03;;;;;;;22.13;13.05;;;;;;;2.41;70.19;101431.22;3062604;29;20055;-78
2021/03/01 01:55:34;;;;;;;19.55;11.48;;;;;;;2.36;70.26;101425.28;3064194;29;20047;-78
2021/03/01 01:57:06;;;;;;;22.27;12.07;;;;;;;2.34;70.43;101424.47;3061498;29;20070;-77
2021/03/01 01:58:38;;;;;;;22.30;12.90;;;;;;;2.30;70.49;101423.72;3064148;29;20487;-77
2021/03/01 02:00:21;;;;;;;25.45;13.23;;;;;;;2.26;70.45;101424.78;3061223;29;20090;-77
2021/03/01 02:01:54;;;;;;;19.92;12.50;;;;;;;2.23;70.66;101422.25;3061024;29;20710;-77
2021/03/01 02:03:43;;;;;;;21.98;12.52;;;;;;;2.21;70.73;101424.06;3060298;29;20058;-77
2021/03/01 02:05:15;;;;;;;18.25;10.68;;;;;;;2.19;70.87;101423.25;3062204;29;20054;-77
2021/03/01 02:06:53;;;;;;;17.50;9.73;;;;;;;2.20;70.81;101421.50;3062028;29;20051;-78
2021/03/01 02:08:30;;;;;;;19.65;11.63;;;;;;;2.20;70.50;101426.78;3064630;29;20044;-78
2021/03/01 02:10:10;;;;;;;23.20;12.27;;;;;;;2.18;70.71;101426.81;3061382;29;20077;-77
2021/03/01 02:11:53;;;;;;;24.17;12.15;;;;;;;2.17;70.64;101425.13;3061954;29;20043;-77
2021/03/01 02:13:33;;;;;;;22.40;12.70;;;;;;;2.20;70.63;101424.97;3058673;29;20078;-77
2021/03/01 02:15:11;;;;;;;24.17;13.52;;;;;;;2.23;70.53;101427.53;3061020;29;20063;-78
2021/03/01 02:16:43;;;;;;;19.95;12.23;;;;;;;2.26;70.62;101423.91;3064317;29;20052;-78
2021/03/01 02:18:14;;;;;;;20.13;10.90;;;;;;;2.26;70.23;101422.13;3058865;29;20052;-78
2021/03/01 02:19:45;;;;;;;18.67;10.15;;;;;;;2.28;70.19;101415.00;3063601;29;20066;-78
2021/03/01 02:21:17;;;;;;;24.55;12.02;;;;;;;2.29;70.22;101416.72;3060657;29;20126;-78
2021/03/01 02:22:49;;;;;;;16.30;9.15;;;;;;;2.29;70.38;101416.72;3062876;29;20047;-78
2021/03/01 02:24:25;;;;;;;22.98;12.48;;;;;;;2.30;70.07;101414.97;3059176;29;20071;-78
2021/03/01 02:26:00;;;;;;;16.52;9.90;;;;;;;2.28;69.96;101415.00;3062975;29;20179;-78
2021/03/01 02:27:38;;;;;;;20.30;11.68;;;;;;;2.32;69.80;101406.06;3060325;29;20048;-78
2021/03/01 02:29:11;;;;;;;17.38;9.57;;;;;;;2.36;69.93;101406.78;3062989;29;20511;-78
2021/03/01 02:30:47;;;;;;;19.50;11.35;;;;;;;2.34;69.65;101409.50;3058352;29;20079;-78
2021/03/01 02:32:19;;;;;;;21.15;12.13;;;;;;;2.28;69.62;101409.72;3062498;29;20047;-78
2021/03/01 02:33:55;;;;;;;21.17;12.15;;;;;;;2.19;69.91;101412.69;3060239;29;20059;-77
2021/03/01 02:35:29;;;;;;;19.02;11.38;;;;;;;2.10;70.10;101407.78;3060974;29;20047;-78
2021/03/01 02:37:19;;;;;;;18.98;11.35;;;;;;;2.00;70.06;101397.56;3061336;29;20075;-78
2021/03/01 02:38:53;;;;;;;20.77;12.02;;;;;;;1.91;70.48;101413.72;3074699;29;20055;-79
2021/03/01 02:40:25;;;;;;;19.90;11.70;;;;;;;1.84;70.54;101407.78;3073708;29;20043;-79
2021/03/01 02:41:58;;;;;;;20.88;12.02;;;;;;;1.79;70.78;101419.47;3070898;29;20527;-79
2021/03/01 02:43:30;;;;;;;20.20;11.82;;;;;;;1.71;70.73;101407.38;3072838;29;20048;-78
2021/03/01 02:45:03;;;;;;;21.48;11.18;;;;;;;1.69;71.02;101406.59;3059459;29;20059;-78
2021/03/01 02:46:36;;;;;;;27.10;12.55;;;;;;;1.68;71.04;101410.16;3062604;29;20492;-78
2021/03/01 02:48:09;;;;;;;23.23;13.35;;;;;;;1.66;71.07;101411.97;3059870;29;20043;-78
2021/03/01 02:49:43;;;;;;;20.38;11.50;;;;;;;1.61;71.21;101408.63;3062635;29;20061;-77
2021/03/01 02:51:15;;;;;;;18.48;10.73;;;;;;;1.60;71.16;101416.59;3056274;29;20039;-77
2021/03/01 02:52:48;;;;;;;23.83;12.02;;;;;;;1.57;71.20;101420.19;3063216;29;20055;-78
2021/03/01 02:54:23;;;;;;;19.23;11.25;;;;;;;1.56;71.39;101418.47;3061277;29;20040;-78
2021/03/01 02:55:54;;;;;;;18.83;10.90;;;;;;;1.54;71.50;101418.53;3060043;29;20052;-77
2021/03/01 02:57:26;;;;;;;19.40;12.02;;;;;;;1.53;71.45;101418.56;3060203;29;20044;-77
2021/03/01 02:58:58;;;;;;;20.75;11.65;;;;;;;1.55;71.42;101420.25;3060973;29;20075;-77
2021/03/01 03:00:30;;;;;;;21.58;11.63;;;;;;;1.59;71.46;101418.38;3062607;29;20047;-78
2021/03/01 03:02:02;;;;;;;18.90;11.02;;;;;;;1.62;71.31;101415.63;3062259;29;20056;-78
2021/03/01 03:03:33;;;;;;;17.27;10.38;;;;;;;1.67;71.21;101413.69;3060334;29;20067;-77
2021/03/01 03:05:07;;;;;;;23.05;11.10;;;;;;;1.77;71.17;101402.81;3061080;29;20087;-78
2021/03/01 03:06:39;;;;;;;21.35;11.35;;;;;;;1.76;70.97;101412.50;3060264;29;20491;-78
2021/03/01 03:08:15;;;;;;;16.65;9.50;;;;;;;1.76;70.99;101403.72;3057417;29;20051;-78
2021/03/01 03:09:48;;;;;;;20.25;11.07;;;;;;;1.82;70.89;101401.75;3058558;29;20054;-78
2021/03/01 03:11:20;;;;;;;23.15;12.25;;;;;;;1.84;70.74;101401.69;3062707;29;20106;-77
2021/03/01 03:12:52;;;;;;;20.92;11.70;;;;;;;1.84;70.65;101407.78;3063741;29;20047;-77
2021/03/01 03:14:27;;;;;;;20.77;11.98;;;;;;;1.87;70.74;101398.94;3058720;29;20048;-78
2021/03/01 03:15:58;;;;;;;14.88;8.90;;;;;;;1.93;70.63;101403.97;3061507;29;20047;-78
2021/03/01 03:17:33;;;;;;;14.52;8.10;;;;;;;2.00;70.32;101400.19;3063723;29;20044;-77
2021/03/01 03:19:05;;;;;;;18.73;9.38;;;;;;;2.06;70.25;101400.91;3058912;29;20059;-79
2021/03/01 03:20:37;;;;;;;21.08;10.98;;;;;;;2.10;70.01;101403.38;3063252;29;20056;-78
2021/03/01 03:22:10;;;;;;;14.13;7.85;;;;;;;2.15;69.79;101397.94;3060249;29;20071;-78
2021/03/01 03:23:41;;;;;;;15.75;8.52;;;;;;;2.16;69.69;101399.66;3061771;29;20086;-77
2021/03/01 03:25:13;;;;;;;22.20;11.50;;;;;;;2.15;69.43;101395.28;3059976;29;20047;-77
2021/03/01 03:26:44;;;;;;;17.02;10.50;;;;;;;2.08;69.69;101397.28;3059287;29;20062;-77
2021/03/01 03:28:16;;;;;;;20.08;11.50;;;;;;;2.07;69.65;101400.84;3061606;29;20046;-77
2021/03/01 03:29:46;;;;;;;19.33;10.80;;;;;;;2.05;69.67;101397.38;3059263;29;20056;-77
2021/03/01 03:31:18;;;;;;;21.83;11.75;;;;;;;2.00;69.63;101400.19;3064661;29;20062;-77
2021/03/01 03:32:49;;;;;;;17.65;9.70;;;;;;;1.95;69.63;101401.28;3061399;29;20051;-77
2021/03/01 03:34:21;;;;;;;19.80;11.15;;;;;;;1.95;69.64;101398.63;3059835;29;20479;-77
2021/03/01 03:35:52;;;;;;;16.23;9.25;;;;;;;1.94;69.65;101400.44;3056287;29;20087;-78
2021/03/01 03:37:29;;;;;;;20.85;11.07;;;;;;;1.96;69.75;101403.00;3064315;29;20423;-78
2021/03/01 03:39:05;;;;;;;21.85;10.38;;;;;;;1.97;69.71;101405.59;3059668;29;20075;-78
2021/03/01 03:40:39;;;;;;;17.55;10.27;;;;;;;1.97;69.55;101397.69;3060981;29;20387;-78
2021/03/01 03:42:12;;;;;;;17.15;9.52;;;;;;;1.97;69.61;101408.25;3054834;29;20083;-77
2021/03/01 03:43:44;;;;;;;18.15;9.65;;;;;;;1.98;69.69;101396.78;3055506;29;20048;-77
2021/03/01 03:45:19;;;;;;;20.60;9.48;;;;;;;1.98;69.55;101394.16;3058947;29;20760;-77
2021/03/01 03:46:52;;;;;;;20.08;10.82;;;;;;;2.01;69.45;101394.00;3067041;29;20055;-77
2021/03/01 03:48:26;;;;;;;17.52;9.57;;;;;;;2.01;69.40;101399.28;3059523;29;20067;-77
2021/03/01 03:49:59;;;;;;;17.27;10.07;;;;;;;2.02;69.33;101392.25;3061091;29;20098;-77
2021/03/01 03:51:32;;;;;;;20.20;11.40;;;;;;;2.01;69.32;101395.81;3060388;29;20048;-76
2021/03/01 03:53:07;;;;;;;19.52;10.80;;;;;;;1.99;69.43;101397.63;3064796;29;20476;-77
2021/03/01 03:54:41;;;;;;;18.58;10.57;;;;;;;2.00;69.14;101394.06;3060003;29;20048;-77
2021/03/01 03:56:15;;;;;;;19.17;9.63;;;;;;;2.02;69.46;101401.00;3071748;29;20043;-77
2021/03/01 03:57:54;;;;;;;20.90;10.63;;;;;;;2.05;69.33;101412.38;3070433;29;20039;-77
2021/03/01 03:59:29;;;;;;;17.55;10.07;;;;;;;2.02;69.29;101408.06;3068687;29;20039;-77
2021/03/01 04:01:01;;;;;;;15.45;8.13;;;;;;;2.02;69.31;101398.38;3068477;29;20107;-77
2021/03/01 04:02:36;;;;;;;17.67;10.00;;;;;;;2.04;69.39;101400.94;3068063;29;20052;-77
2021/03/01 04:04:10;;;;;;;20.20;10.77;;;;;;;2.06;69.37;101408.81;3062106;29;20059;-76
2021/03/01 04:05:42;;;;;;;16.58;9.15;;;;;;;2.05;69.41;101407.94;3063331;29;20055;-77
2021/03/01 04:07:14;;;;;;;21.67;11.27;;;;;;;2.02;69.21;101395.72;3061186;29;20095;-77
2021/03/01 04:08:49;;;;;;;21.60;12.88;;;;;;;1.94;69.45;101403.06;3061395;29;20081;-77
2021/03/01 04:10:21;;;;;;;20.10;11.75;;;;;;;1.84;69.76;101399.88;3060101;29;20106;-77
2021/03/01 04:11:54;;;;;;;19.65;11.32;;;;;;;1.76;70.04;101406.38;3061639;29;20043;-78
2021/03/01 04:13:28;;;;;;;20.25;10.98;;;;;;;1.66;70.27;101408.44;3068164;29;20152;-77
2021/03/01 04:15:01;;;;;;;19.60;10.90;;;;;;;1.55;70.52;101415.00;3058908;29;20589;-78
2021/03/01 04:16:34;;;;;;;18.10;10.32;;;;;;;1.52;70.68;101424.75;3064960;29;20047;-78
2021/03/01 04:18:06;;;;;;;17.05;8.57;;;;;;;1.53;70.95;101418.56;3059192;29;20067;-78
2021/03/01 04:19:39;;;;;;;16.42;7.82;;;;;;;1.59;70.70;101421.00;3062863;29;20055;-78
2021/03/01 04:21:11;;;;;;;14.25;7.07;;;;;;;1.66;70.46;101425.16;3060583;29;20051;-77
2021/03/01 04:22:43;;;;;;;21.75;10.65;;;;;;;1.73;70.46;101417.03;3061016;29;20052;-77
2021/03/01 04:24:18;;;;;;;19.45;12.02;;;;;;;1.70;70.25;101413.56;3058256;29;20067;-77
2021/03/01 04:25:50;;;;;;;19.65;10.88;;;;;;;1.60;70.32;101420.09;3063922;29;20079;-77
2021/03/01 04:27:23;;;;;;;20.90;11.30;;;;;;;1.54;70.66;101417.66;3058854;29;20051;-77
2021/03/01 04:28:56;;;;;;;20.48;11.68;;;;;;;1.47;70.96;101417.00;3060717;29;20048;-77
2021/03/01 04:30:28;;;;;;;18.17;10.05;;;;;;;1.46;71.12;101417.06;3060224;29;20051;-77
2021/03/01 04:31:59;;;;;;;19.02;10.32;;;;;;;1.50;71.14;101421.34;3063436;29;20078;-78
2021/03/01 04:33:32;;;;;;;18.38;10.93;;;;;;;1.52;71.07;101415.09;3059177;29;20388;-76
2021/03/01 04:35:06;;;;;;;17.35;10.27;;;;;;;1.56;71.04;101424.59;3057954;29;20055;-76
2021/03/01 04:36:38;;;;;;;17.25;10.82;;;;;;;1.58;70.89;101421.06;3057938;29;20062;-77
2021/03/01 04:38:10;;;;;;;20.27;10.60;;;;;;;1.60;70.82;101417.47;3061661;29;20054;-76
2021/03/01 04:39:41;;;;;;;18.30;9.57;;;;;;;1.61;70.69;101418.31;3051932;29;20063;-77
2021/03/01 04:41:13;;;;;;;18.52;10.63;;;;;;;1.61;70.70;101416.53;3051256;29;20416;-79
2021/03/01 04:42:48;;;;;;;19.00;10.68;;;;;;;1.62;70.66;101417.41;3047036;29;20052;-78
2021/03/01 04:44:20;;;;;;;19.98;10.27;;;;;;;1.58;70.63;101414.03;3054238;29;20059;-78
2021/03/01 04:45:54;;;;;;;17.05;9.93;;;;;;;1.57;70.77;101417.56;3048091;29;20093;-78
2021/03/01 04:47:26;;;;;;;23.30;11.77;;;;;;;1.56;70.75;101415.84;3050302;29;20052;-79
2021/03/01 04:49:01;;;;;;;18.60;10.15;;;;;;;1.54;70.86;101417.66;3060108;29;21191;-78
2021/03/01 04:50:33;;;;;;;14.90;9.05;;;;;;;1.55;70.78;101417.63;3066833;29;20050;-79
2021/03/01 04:52:05;;;;;;;18.88;9.77;;;;;;;1.58;70.73;101423.69;3062143;28;20051;-79
2021/03/01 04:53:40;;;;;;;16.52;9.38;;;;;;;1.57;70.80;101420.19;3067211;29;20054;-79
2021/03/01 04:55:12;;;;;;;13.40;7.55;;;;;;;1.62;70.80;101425.31;3067528;29;20055;-79
2021/03/01 04:56:51;;;;;;;15.63;9.45;;;;;;;1.65;70.47;101420.78;3066892;29;20051;-79
2021/03/01 04:58:25;;;;;;;16.95;9.07;;;;;;;1.60;70.58;101417.47;3067931;29;20094;-79
2021/03/01 05:00:06;;;;;;;17.75;10.18;;;;;;;1.56;70.66;101426.38;3061629;28;20457;-80
2021/03/01 05:01:49;;;;;;;15.50;9.73;;;;;;;1.53;70.73;101422.09;3065645;29;20060;-79
2021/03/01 05:03:21;;;;;;;19.65;10.95;;;;;;;1.53;70.95;101423.84;3064609;28;20046;-79
2021/03/01 05:04:52;;;;;;;16.95;8.68;;;;;;;1.52;70.98;101427.38;3068444;29;20051;-79
2021/03/01 05:06:24;;;;;;;19.52;11.88;;;;;;;1.53;70.99;101424.72;3066884;28;20047;-81
2021/03/01 05:07:58;;;;;;;16.92;10.52;;;;;;;1.53;71.16;101427.34;3066267;29;20058;-79
2021/03/01 05:09:34;;;;;;;15.23;8.30;;;;;;;1.54;71.20;101425.56;3062712;28;20047;-79
2021/03/01 05:11:07;;;;;;;20.48;11.00;;;;;;;1.56;71.11;101429.03;3062497;29;20411;-79
2021/03/01 05:12:38;;;;;;;21.58;11.35;;;;;;;1.56;71.14;101424.59;3062901;28;20449;-78
2021/03/01 05:14:10;;;;;;;18.88;9.45;;;;;;;1.56;71.22;101429.88;3065336;29;20063;-79
2021/03/01 05:15:41;;;;;;;20.10;11.30;;;;;;;1.57;71.33;101428.09;3064833;29;20066;-78
2021/03/01 05:17:13;;;;;;;16.92;9.60;;;;;;;1.55;71.16;101435.19;3067945;29;20039;-80
2021/03/01 05:18:47;;;;;;;17.27;8.80;;;;;;;1.54;71.36;101429.09;3063270;28;20052;-78
2021/03/01 05:20:19;;;;;;;17.90;10.00;;;;;;;1.54;71.40;101428.22;3062383;29;20074;-78
2021/03/01 05:21:51;;;;;;;18.38;9.18;;;;;;;1.53;71.31;101430.00;3061124;28;20060;-78
2021/03/01 05:23:24;;;;;;;21.15;10.60;;;;;;;1.51;71.33;101423.91;3064102;29;20052;-79
2021/03/01 05:24:55;;;;;;;20.38;11.15;;;;;;;1.41;71.54;101419.84;3067497;28;20056;-79
2021/03/01 05:26:27;;;;;;;22.67;11.93;;;;;;;1.36;71.87;101430.56;3072247;29;20059;-79
2021/03/01 05:28:08;;;;;;;18.15;9.82;;;;;;;1.32;71.89;101428.97;3072220;28;20111;-79
2021/03/01 05:29:40;;;;;;;18.08;10.05;;;;;;;1.32;72.03;101430.72;3073588;29;20059;-79
2021/03/01 05:31:12;;;;;;;16.73;10.57;;;;;;;1.34;72.07;101431.53;3065141;28;20051;-80
2021/03/01 05:32:43;;;;;;;21.88;11.27;;;;;;;1.35;72.07;101431.47;3072670;29;20156;-79
2021/03/01 05:34:15;;;;;;;19.80;10.63;;;;;;;1.35;72.08;101430.63;3069823;29;20060;-80
2021/03/01 05:35:46;;;;;;;20.40;10.73;;;;;;;1.32;72.20;101434.22;3070172;28;20060;-79
2021/03/01 05:37:17;;;;;;;21.48;11.90;;;;;;;1.27;72.40;101440.56;3067214;29;20555;-79
2021/03/01 05:38:49;;;;;;;19.75;10.80;;;;;;;1.29;72.46;101433.44;3061452;28;20047;-77
2021/03/01 05:40:21;;;;;;;20.85;10.70;;;;;;;1.32;72.51;101439.50;3060326;29;20052;-77
2021/03/01 05:41:54;;;;;;;17.65;10.23;;;;;;;1.34;72.47;101436.81;3057392;28;20047;-76
2021/03/01 05:43:27;;;;;;;17.98;9.88;;;;;;;1.34;72.42;101440.28;3060388;29;20102;-77
2021/03/01 05:45:00;;;;;;;24.58;13.13;;;;;;;1.35;72.42;101442.00;3062015;28;20052;-76
2021/03/01 05:46:34;;;;;;;20.92;12.00;;;;;;;1.35;72.34;101433.25;3063387;29;20607;-76
2021/03/01 05:48:09;;;;;;;23.15;12.63;;;;;;;1.37;72.29;101441.97;3061034;28;20135;-77
2021/03/01 05:49:42;;;;;;;26.55;13.10;;;;;;;1.35;72.29;101436.72;3063075;29;20063;-77
2021/03/01 05:51:15;;;;;;;21.77;11.68;;;;;;;1.37;72.35;101434.91;3063180;28;20507;-77
2021/03/01 05:52:53;;;;;;;20.23;11.38;;;;;;;1.36;72.31;101438.47;3063443;29;20079;-77
2021/03/01 05:54:27;;;;;;;22.00;11.48;;;;;;;1.36;72.27;101440.25;3061849;28;20060;-77
2021/03/01 05:55:59;;;;;;;27.08;13.48;;;;;;;1.38;72.24;101438.41;3065247;29;20047;-77
2021/03/01 05:57:32;;;;;;;18.17;9.77;;;;;;;1.38;72.24;101435.75;3060029;28;20060;-77
2021/03/01 05:59:05;;;;;;;19.63;10.43;;;;;;;1.40;71.95;101431.31;3062881;29;20106;-77
2021/03/01 06:00:37;;;;;;;21.60;12.15;;;;;;;1.39;72.10;101446.28;3060178;28;20058;-77
2021/03/01 06:02:08;;;;;;;27.83;11.52;;;;;;;1.38;71.98;101441.03;3060963;29;20048;-77
2021/03/01 06:03:40;;;;;;;23.13;12.15;;;;;;;1.35;72.13;101439.38;3058173;28;20051;-77
2021/03/01 06:05:12;;;;;;;23.58;12.50;;;;;;;1.34;72.12;101437.66;3065543;29;20044;-77
2021/03/01 06:06:43;;;;;;;30.17;13.60;;;;;;;1.32;72.20;101439.50;3061602;28;20047;-77
2021/03/01 06:08:15;;;;;;;24.50;12.35;;;;;;;1.34;72.22;101436.81;3066139;28;20048;-77
2021/03/01 06:09:46;;;;;;;24.17;12.10;;;;;;;1.35;72.02;101433.25;3062684;28;20115;-77
2021/03/01 06:11:18;;;;;;;26.33;12.43;;;;;;;1.35;71.99;101439.38;3064374;28;20059;-77
2021/03/01 06:12:49;;;;;;;28.00;12.40;;;;;;;1.30;71.91;101440.44;3062132;28;20043;-77
2021/03/01 06:14:21;;;;;;;22.80;11.73;;;;;;;1.26;71.80;101444.94;3062981;29;20116;-78
2021/03/01 06:15:54;;;;;;;22.90;12.68;;;;;;;1.28;71.95;101443.13;3062750;28;20047;-77
2021/03/01 06:17:25;;;;;;;26.98;13.05;;;;;;;1.27;71.54;101444.03;3061977;29;20043;-78
2021/03/01 06:18:56;;;;;;;23.83;12.13;;;;;;;1.24;71.61;101439.75;3062647;28;20058;-78
2021/03/01 06:20:27;;;;;;;24.45;11.57;;;;;;;1.28;71.42;101439.63;3064049;28;20048;-77
2021/03/01 06:21:59;;;;;;;22.70;11.88;;;;;;;1.33;71.03;101446.47;3062331;29;20044;-77
2021/03/01 06:23:31;;;;;;;20.77;10.98;;;;;;;1.36;70.71;101446.38;3065487;29;20051;-77
2021/03/01 06:25:09;;;;;;;19.23;10.93;;;;;;;1.40;70.41;101445.38;3068493;28;20058;-78
2021/03/01 06:26:40;;;;;;;24.60;12.40;;;;;;;1.43;70.23;101440.88;3062917;29;20071;-77
2021/03/01 06:28:12;;;;;;;19.83;10.45;;;;;;;1.45;70.13;101444.34;3062090;29;20076;-77
2021/03/01 06:30:07;;;;;;;21.65;10.15;;;;;;;1.49;69.87;101443.34;3065875;29;20048;-77
2021/03/01 06:31:44;;;;;;;16.77;9.43;;;;;;;1.57;69.79;101446.56;3059234;29;20074;-77
2021/03/01 06:33:16;;;;;;;28.20;12.35;;;;;;;1.56;69.89;101452.75;3061819;28;20066;-77
2021/03/01 06:34:47;;;;;;;23.23;13.02;;;;;;;1.45;70.38;101455.75;3064653;29;20090;-77
2021/03/01 06:36:18;;;;;;;23.90;12.10;;;;;;;1.39;70.70;101454.19;3061347;28;20044;-77
2021/03/01 06:38:31;;;;;;;25.23;12.77;;;;;;;1.32;71.17;101451.78;3065735;29;20058;-78
2021/03/01 06:40:03;;;;;;;18.70;9.75;;;;;;;1.33;71.68;101456.16;3058907;29;20506;-77
2021/03/01 06:41:34;;;;;;;20.35;11.85;;;;;;;1.40;71.36;101455.91;3061709;29;20071;-77
2021/03/01 06:43:10;;;;;;;18.25;9.10;;;;;;;1.46;71.57;101456.59;3063726;29;20047;-77
2021/03/01 06:44:41;;;;;;;17.95;9.88;;;;;;;1.51;71.28;101449.41;3064830;29;20465;-77
2021/03/01 06:46:14;;;;;;;19.58;10.75;;;;;;;1.58;71.25;101453.56;3062432;28;20047;-77
2021/03/01 06:47:49;;;;;;;17.95;10.88;;;;;;;1.64;71.12;101455.97;3061519;28;20066;-77
2021/03/01 06:49:21;;;;;;;14.40;8.45;;;;;;;1.71;70.89;101457.47;3063724;29;20048;-77
2021/03/01 06:50:54;;;;;;;20.80;11.00;;;;;;;1.78;70.49;101459.94;3063098;28;20044;-77
2021/03/01 06:52:36;;;;;;;16.20;9.75;;;;;;;1.81;70.22;101459.78;3063770;29;20048;-77
2021/03/01 06:54:08;;;;;;;20.67;11.00;;;;;;;1.83;69.91;101452.69;3064047;28;20520;-78
2021/03/01 06:55:54;;;;;;;19.13;10.85;;;;;;;1.84;69.42;101467.59;3066705;29;20055;-77
2021/03/01 06:57:26;;;;;;;16.35;10.02;;;;;;;1.85;68.84;101466.69;3061158;28;20047;-77
2021/03/01 06:59:10;;;;;;;20.17;10.98;;;;;;;1.87;68.44;101459.59;3060689;29;20052;-77
2021/03/01 07:00:41;;;;;;;18.75;10.32;;;;;;;1.93;68.34;101462.00;3066184;28;20078;-77
2021/03/01 07:02:12;;;;;;;16.10;10.35;;;;;;;1.93;67.96;101469.91;3064652;29;20075;-77
2021/03/01 07:03:46;;;;;;;17.95;10.20;;;;;;;2.00;67.74;101470.56;3062133;29;20063;-77
2021/03/01 07:05:17;;;;;;;18.02;9.93;;;;;;;2.06;67.73;101475.63;3061016;29;20518;-78
2021/03/01 07:06:49;;;;;;;16.98;10.85;;;;;;;2.15;67.41;101469.16;3065206;29;20051;-77
2021/03/01 07:08:41;;;;;;;20.55;11.00;;;;;;;2.15;67.19;101467.38;3062813;29;20048;-78
2021/03/01 07:10:12;;;;;;;17.98;10.02;;;;;;;2.16;66.99;101473.53;3062365;29;20075;-77